createdAt,value
2023-03-31T00:01:53.186Z,95.31
2023-03-31T00:04:24.540Z,92.36
2023-03-31T00:06:54.741Z,93.78
2023-03-31T00:09:22.447Z,93.66
2023-03-31T00:11:50.810Z,92.30
2023-03-31T00:14:18.610Z,92.70
2023-03-31T00:16:45.883Z,92.56
2023-03-31T00:19:18.503Z,92.39
2023-03-31T00:21:46.067Z,92.40
2023-03-31T00:24:13.305Z,92.95
2023-03-31T00:26:40.497Z,92.57
2023-03-31T00:29:08.924Z,92.42
2023-03-31T00:31:36.464Z,92.61
2023-03-31T00:34:03.378Z,92.35
2023-03-31T00:36:30.318Z,91.54
2023-03-31T00:39:00.253Z,91.69
2023-03-31T00:41:27.580Z,92.01
2023-03-31T00:44:03.537Z,93.14
2023-03-31T00:46:33.396Z,93.01
2023-03-31T00:49:00.375Z,94.13
2023-03-31T00:51:29.120Z,94.26
2023-03-31T00:54:00.149Z,94.72
2023-03-31T00:56:32.960Z,95.35
2023-03-31T00:59:02.594Z,94.45
2023-03-31T01:01:31.023Z,94.25
2023-03-31T01:03:59.657Z,94.29
2023-03-31T01:06:26.676Z,94.42
2023-03-31T01:08:53.607Z,94.97
2023-03-31T01:11:21.344Z,95.22
2023-03-31T01:13:51.191Z,96.22
2023-03-31T01:16:18.825Z,96.66
2023-03-31T01:18:50.135Z,96.88
2023-03-31T01:21:30.955Z,96.79
2023-03-31T01:24:07.771Z,97.23
2023-03-31T01:26:44.687Z,97.62
2023-03-31T01:29:21.629Z,98.21
2023-03-31T01:31:57.543Z,98.08
2023-03-31T01:34:33.520Z,98.55
2023-03-31T01:37:16.087Z,98.83
2023-03-31T01:39:53.119Z,99.24
2023-03-31T01:42:30.587Z,99.82
2023-03-31T01:45:03.470Z,99.85
2023-03-31T01:47:34.932Z,100.00
2023-03-31T01:50:06.166Z,100.00
2023-03-31T01:52:39.917Z,100.00
2023-03-31T01:55:12.194Z,100.00
2023-03-31T01:57:42.138Z,100.00
2023-03-31T02:00:14.520Z,99.89
2023-03-31T02:02:46.626Z,100.00
2023-03-31T02:05:17.243Z,99.93
2023-03-31T02:07:48.467Z,99.81
2023-03-31T02:10:16.846Z,100.00
2023-03-31T02:12:45.664Z,100.00
2023-03-31T02:15:15.000Z,100.00
2023-03-31T02:17:46.167Z,100.00
2023-03-31T02:20:15.729Z,100.00
2023-03-31T02:22:44.263Z,99.59
2023-03-31T02:25:13.104Z,99.82
2023-03-31T02:27:42.475Z,99.05
2023-03-31T02:30:10.173Z,98.80
2023-03-31T02:32:37.319Z,99.07
2023-03-31T02:35:05.164Z,98.87
2023-03-31T02:37:32.365Z,98.47
2023-03-31T02:40:00.852Z,98.28
2023-03-31T02:42:27.758Z,98.86
2023-03-31T02:44:54.734Z,98.75
2023-03-31T02:47:22.454Z,98.75
2023-03-31T02:49:51.978Z,98.33
2023-03-31T02:52:20.024Z,99.04
2023-03-31T02:54:57.287Z,98.85
2023-03-31T02:57:34.328Z,98.38
2023-03-31T03:00:10.800Z,98.52
2023-03-31T03:02:51.502Z,98.68
2023-03-31T03:05:22.968Z,98.67
2023-03-31T03:07:59.736Z,98.53
2023-03-31T03:10:36.760Z,98.11
2023-03-31T03:13:04.833Z,98.25
2023-03-31T03:15:34.766Z,97.96
2023-03-31T03:18:02.894Z,97.76
2023-03-31T03:20:29.758Z,97.17
2023-03-31T03:22:56.620Z,96.41
2023-03-31T03:25:24.849Z,96.10
2023-03-31T03:27:53.400Z,96.76
2023-03-31T03:30:20.281Z,96.94
2023-03-31T03:32:47.568Z,97.46
2023-03-31T03:35:14.637Z,98.31
2023-03-31T03:37:41.454Z,96.74
2023-03-31T03:40:09.202Z,96.51
2023-03-31T03:42:36.097Z,97.02
2023-03-31T03:45:03.286Z,97.15
2023-03-31T03:47:30.185Z,96.68
2023-03-31T03:49:57.023Z,96.60
2023-03-31T03:52:23.958Z,96.33
2023-03-31T03:54:50.918Z,96.38
2023-03-31T03:57:17.865Z,96.06
2023-03-31T03:59:44.758Z,96.06
2023-03-31T04:02:11.949Z,96.39
2023-03-31T04:04:38.843Z,96.34
2023-03-31T04:07:05.894Z,96.45
2023-03-31T04:09:32.772Z,96.88
2023-03-31T04:11:59.609Z,97.24
2023-03-31T04:14:26.756Z,97.59
2023-03-31T04:16:56.625Z,97.33
2023-03-31T04:19:26.281Z,96.93
2023-03-31T04:22:03.253Z,97.06
2023-03-31T04:24:33.472Z,97.09
2023-03-31T04:27:01.097Z,96.45
2023-03-31T04:29:27.997Z,96.85
2023-03-31T04:31:59.199Z,97.23
2023-03-31T04:34:35.648Z,96.59
2023-03-31T04:37:03.272Z,96.29
2023-03-31T04:39:31.741Z,96.14
2023-03-31T04:41:59.073Z,96.08
2023-03-31T04:44:26.383Z,96.11
2023-03-31T04:46:53.499Z,96.23
2023-03-31T04:49:20.479Z,95.91
2023-03-31T04:51:47.557Z,95.57
2023-03-31T04:54:14.409Z,95.55
2023-03-31T04:56:41.230Z,95.27
2023-03-31T04:59:09.006Z,95.65
2023-03-31T05:01:39.107Z,96.33
2023-03-31T05:04:06.265Z,96.75
2023-03-31T05:06:33.315Z,96.51
2023-03-31T05:09:00.158Z,96.21
2023-03-31T05:11:27.723Z,96.34
2023-03-31T05:13:54.702Z,95.76
2023-03-31T05:16:21.866Z,96.04
2023-03-31T05:18:48.785Z,96.18
2023-03-31T05:21:17.782Z,96.18
2023-03-31T05:23:44.737Z,96.62
2023-03-31T05:26:12.305Z,96.90
2023-03-31T05:28:39.170Z,97.08
2023-03-31T05:31:07.309Z,97.13
2023-03-31T05:33:34.504Z,97.18
2023-03-31T05:36:01.536Z,97.05
2023-03-31T05:38:32.077Z,96.86
2023-03-31T05:40:58.913Z,96.22
2023-03-31T05:43:26.052Z,96.30
2023-03-31T05:45:52.937Z,96.49
2023-03-31T05:48:20.281Z,96.73
2023-03-31T05:50:47.318Z,96.70
2023-03-31T05:53:14.305Z,96.43
2023-03-31T05:55:41.107Z,96.30
2023-03-31T05:58:08.915Z,96.82
2023-03-31T06:00:36.695Z,97.47
2023-03-31T06:03:03.924Z,97.71
2023-03-31T06:05:32.699Z,97.83
2023-03-31T06:07:59.589Z,97.66
2023-03-31T06:10:26.510Z,97.81
2023-03-31T06:12:53.340Z,97.72
2023-03-31T06:15:20.328Z,97.27
2023-03-31T06:17:47.239Z,97.61
2023-03-31T06:20:27.206Z,97.86
2023-03-31T06:22:54.986Z,98.30
2023-03-31T06:25:22.163Z,98.33
2023-03-31T06:27:49.184Z,97.73
2023-03-31T06:30:16.352Z,97.71
2023-03-31T06:32:43.294Z,97.75
2023-03-31T06:35:10.386Z,98.07
2023-03-31T06:37:37.324Z,98.41
2023-03-31T06:40:05.053Z,97.57
2023-03-31T06:42:32.038Z,96.82
2023-03-31T06:44:59.127Z,96.80
2023-03-31T06:47:26.441Z,96.92
2023-03-31T06:49:53.385Z,97.34
2023-03-31T06:52:20.247Z,97.25
2023-03-31T06:54:47.132Z,97.33
2023-03-31T06:57:14.102Z,97.42
2023-03-31T06:59:41.073Z,96.65
2023-03-31T07:02:08.443Z,96.28
2023-03-31T07:04:35.389Z,96.41
2023-03-31T07:07:02.333Z,96.62
2023-03-31T07:09:29.544Z,95.15
2023-03-31T07:11:56.966Z,95.31
2023-03-31T07:14:24.071Z,95.59
2023-03-31T07:16:51.396Z,95.38
2023-03-31T07:19:18.437Z,95.55
2023-03-31T07:21:46.129Z,95.67
2023-03-31T07:24:13.040Z,95.74
2023-03-31T07:26:40.076Z,96.26
2023-03-31T07:29:07.058Z,94.71
2023-03-31T07:31:34.031Z,93.67
2023-03-31T07:34:02.018Z,94.22
2023-03-31T07:36:29.029Z,94.04
2023-03-31T07:38:56.093Z,94.07
2023-03-31T07:41:23.460Z,93.74
2023-03-31T07:43:50.729Z,93.38
2023-03-31T07:46:20.861Z,93.13
2023-03-31T07:48:48.302Z,93.00
2023-03-31T07:51:17.031Z,93.48
2023-03-31T07:53:43.978Z,93.92
2023-03-31T07:56:12.294Z,92.59
2023-03-31T07:58:39.437Z,92.36
2023-03-31T08:01:06.935Z,92.97
2023-03-31T08:03:34.942Z,92.78
2023-03-31T08:06:02.165Z,93.09
2023-03-31T08:08:29.348Z,93.10
2023-03-31T08:10:56.400Z,93.54
2023-03-31T08:13:23.501Z,93.39
2023-03-31T08:15:50.463Z,93.43
2023-03-31T08:18:17.623Z,92.95
2023-03-31T08:20:44.583Z,93.39
2023-03-31T08:23:12.499Z,93.62
2023-03-31T08:25:39.654Z,93.81
2023-03-31T08:28:07.310Z,94.54
2023-03-31T08:30:34.800Z,93.36
2023-03-31T08:33:02.339Z,93.42
2023-03-31T08:35:29.316Z,94.17
2023-03-31T08:37:56.491Z,94.05
2023-03-31T08:40:24.930Z,93.22
2023-03-31T08:42:56.503Z,94.12
2023-03-31T08:45:26.367Z,94.31
2023-03-31T08:47:57.945Z,93.55
2023-03-31T08:50:27.899Z,94.35
2023-03-31T08:53:00.658Z,94.06
2023-03-31T08:55:29.800Z,93.38
2023-03-31T08:58:02.101Z,93.93
2023-03-31T09:00:32.116Z,94.23
2023-03-31T09:03:04.338Z,94.23
2023-03-31T09:05:46.169Z,94.49
2023-03-31T09:08:37.132Z,94.52
2023-03-31T09:11:09.178Z,93.51
2023-03-31T09:13:45.294Z,93.18
2023-03-31T09:16:17.129Z,93.29
2023-03-31T09:18:47.328Z,92.96
2023-03-31T09:21:21.455Z,93.40
2023-03-31T09:23:54.018Z,92.70
2023-03-31T09:26:31.032Z,92.93
2023-03-31T09:29:13.758Z,92.78
2023-03-31T09:31:42.977Z,92.36
2023-03-31T09:34:18.332Z,91.44
2023-03-31T09:36:45.489Z,92.00
2023-03-31T09:39:14.608Z,92.90
2023-03-31T09:41:44.403Z,92.69
2023-03-31T09:44:22.266Z,92.74
2023-03-31T09:46:50.270Z,93.41
2023-03-31T09:49:20.232Z,93.40
2023-03-31T09:51:49.655Z,93.11
2023-03-31T09:54:22.922Z,92.91
2023-03-31T09:56:54.053Z,93.53
2023-03-31T09:59:23.087Z,93.29
2023-03-31T10:01:52.522Z,93.84
2023-03-31T10:04:23.301Z,93.48
2023-03-31T10:06:52.850Z,93.65
2023-03-31T10:09:22.367Z,93.90
2023-03-31T10:11:58.547Z,93.53
2023-03-31T10:14:28.370Z,94.40
2023-03-31T10:16:57.121Z,94.48
2023-03-31T10:19:24.896Z,95.13
2023-03-31T10:22:02.482Z,95.53
2023-03-31T10:24:38.220Z,95.89
2023-03-31T10:27:06.883Z,96.72
2023-03-31T10:29:34.833Z,96.88
2023-03-31T10:32:05.054Z,96.60
2023-03-31T10:34:32.840Z,97.52
2023-03-31T10:37:00.442Z,97.42
2023-03-31T10:39:31.179Z,97.57
2023-03-31T10:41:58.164Z,96.93
2023-03-31T10:44:35.202Z,96.66
2023-03-31T10:47:07.604Z,96.50
2023-03-31T10:49:38.543Z,97.14
2023-03-31T10:52:16.103Z,96.45
2023-03-31T10:54:52.978Z,95.75
2023-03-31T10:57:23.194Z,95.53
2023-03-31T10:59:52.265Z,95.43
2023-03-31T11:02:27.736Z,95.53
2023-03-31T11:05:03.794Z,95.03
2023-03-31T11:07:31.002Z,95.70
2023-03-31T11:10:10.392Z,96.40
2023-03-31T11:12:41.757Z,94.85
2023-03-31T11:15:19.549Z,94.39
2023-03-31T11:17:53.845Z,94.43
2023-03-31T11:20:32.133Z,93.76
2023-03-31T11:23:06.878Z,93.83
2023-03-31T11:25:37.311Z,92.23
2023-03-31T11:28:14.072Z,93.46
2023-03-31T11:30:42.311Z,93.72
2023-03-31T11:33:18.988Z,93.42
2023-03-31T11:36:05.070Z,92.00
2023-03-31T11:38:32.358Z,92.31
2023-03-31T11:40:59.711Z,92.28
2023-03-31T11:43:28.183Z,91.77
2023-03-31T11:46:01.628Z,93.07
2023-03-31T11:48:38.230Z,92.70
2023-03-31T11:51:08.439Z,92.55
2023-03-31T11:53:37.828Z,93.18
2023-03-31T11:56:08.217Z,93.60
2023-03-31T11:58:38.761Z,94.11
2023-03-31T12:01:06.389Z,94.16
2023-03-31T12:03:45.550Z,93.66
2023-03-31T12:06:19.417Z,93.35
2023-03-31T12:08:47.406Z,93.43
2023-03-31T12:11:19.998Z,94.17
2023-03-31T12:13:50.274Z,93.75
2023-03-31T12:16:27.218Z,93.60
2023-03-31T12:19:06.564Z,92.87
2023-03-31T12:21:34.984Z,92.08
2023-03-31T12:24:02.023Z,91.28
2023-03-31T12:26:29.415Z,90.94
2023-03-31T12:28:59.227Z,90.63
2023-03-31T12:31:27.674Z,91.19
2023-03-31T12:33:58.604Z,91.56
2023-03-31T12:36:35.170Z,92.09
2023-03-31T12:39:02.938Z,90.74
2023-03-31T12:41:30.211Z,90.65
2023-03-31T12:43:57.589Z,90.71
2023-03-31T12:46:34.151Z,89.31
2023-03-31T12:49:01.799Z,87.00
2023-03-31T12:51:29.236Z,87.13
2023-03-31T12:53:59.570Z,86.89
2023-03-31T12:56:27.734Z,86.69
2023-03-31T12:58:54.964Z,84.75
2023-03-31T13:01:23.138Z,85.48
2023-03-31T13:03:53.559Z,85.90
2023-03-31T13:06:30.061Z,84.06
2023-03-31T13:08:59.279Z,85.09
2023-03-31T13:11:29.805Z,84.55
2023-03-31T13:14:00.839Z,83.93
2023-03-31T13:16:29.376Z,84.04
2023-03-31T13:18:57.089Z,83.67
2023-03-31T13:21:25.251Z,84.48
2023-03-31T13:23:54.032Z,86.83
2023-03-31T13:26:31.628Z,89.29
2023-03-31T13:29:07.925Z,90.80
2023-03-31T13:31:55.011Z,91.74
2023-03-31T13:34:22.381Z,90.91
2023-03-31T13:36:55.492Z,92.10
2023-03-31T13:39:31.964Z,92.25
2023-03-31T13:42:09.222Z,92.62
2023-03-31T13:44:38.654Z,93.70
2023-03-31T13:47:15.854Z,94.85
2023-03-31T13:49:54.117Z,95.61
2023-03-31T13:52:41.542Z,94.78
2023-03-31T13:55:25.044Z,94.89
2023-03-31T13:58:00.011Z,94.98
2023-03-31T14:00:31.001Z,94.09
2023-03-31T14:02:58.906Z,94.61
2023-03-31T14:05:31.718Z,94.29
2023-03-31T14:08:03.076Z,94.61
2023-03-31T14:10:30.272Z,94.63
2023-03-31T14:13:07.017Z,94.42
2023-03-31T14:15:36.032Z,93.89
2023-03-31T14:18:04.770Z,93.93
2023-03-31T14:20:42.156Z,94.75
2023-03-31T14:23:10.946Z,94.07
2023-03-31T14:25:46.280Z,94.12
2023-03-31T14:28:14.964Z,94.07
2023-03-31T14:30:50.068Z,94.27
2023-03-31T14:33:25.808Z,94.62
2023-03-31T14:36:02.374Z,94.49
2023-03-31T14:38:29.915Z,94.76
2023-03-31T14:40:58.288Z,93.97
2023-03-31T14:43:27.577Z,94.46
2023-03-31T14:45:58.998Z,94.41
2023-03-31T14:48:28.824Z,94.28
2023-03-31T14:50:58.434Z,94.64
2023-03-31T14:53:27.190Z,94.87
2023-03-31T14:56:00.294Z,95.31
2023-03-31T14:58:30.685Z,95.74
2023-03-31T15:00:58.222Z,95.71
2023-03-31T15:03:27.011Z,95.63
2023-03-31T15:05:57.794Z,95.42
2023-03-31T15:08:25.739Z,95.46
2023-03-31T15:11:02.264Z,95.95
2023-03-31T15:13:46.615Z,95.51
2023-03-31T15:16:31.585Z,94.60
2023-03-31T15:19:00.655Z,95.60
2023-03-31T15:21:29.841Z,95.96
2023-03-31T15:23:57.533Z,95.65
2023-03-31T15:26:41.282Z,95.14
2023-03-31T15:29:12.361Z,94.63
2023-03-31T15:31:41.594Z,94.41
2023-03-31T15:34:15.198Z,94.36
2023-03-31T15:36:43.327Z,93.81
2023-03-31T15:39:12.211Z,93.22
2023-03-31T15:41:39.490Z,93.21
2023-03-31T15:44:08.048Z,93.14
2023-03-31T15:46:42.557Z,93.08
2023-03-31T15:49:27.037Z,92.38
2023-03-31T15:51:55.393Z,91.86
2023-03-31T15:54:30.755Z,90.95
2023-03-31T15:57:01.088Z,90.25
2023-03-31T15:59:41.613Z,89.88
2023-03-31T16:02:16.771Z,90.42
2023-03-31T16:04:44.233Z,90.94
2023-03-31T16:07:22.106Z,91.46
2023-03-31T16:09:53.395Z,91.97
2023-03-31T16:12:23.660Z,92.29
2023-03-31T16:15:01.141Z,92.33
2023-03-31T16:17:33.394Z,93.14
2023-03-31T16:20:07.884Z,93.02
2023-03-31T16:22:38.578Z,91.56
2023-03-31T16:25:09.904Z,91.83
2023-03-31T16:27:40.204Z,91.25
2023-03-31T16:30:09.416Z,91.45
2023-03-31T16:32:37.042Z,91.08
2023-03-31T16:35:05.640Z,90.78
2023-03-31T16:37:33.082Z,90.50
2023-03-31T16:40:00.395Z,91.37
2023-03-31T16:42:27.846Z,91.92
2023-03-31T16:47:35.071Z,91.39
2023-03-31T16:50:07.898Z,91.78
2023-03-31T16:52:36.960Z,92.03
2023-03-31T16:55:04.858Z,93.11
2023-03-31T16:57:33.071Z,93.78
2023-03-31T17:00:01.211Z,94.15
2023-03-31T17:02:28.713Z,94.26
2023-03-31T17:04:59.705Z,93.99
2023-03-31T17:07:33.919Z,94.16
2023-03-31T17:10:01.139Z,94.46
2023-03-31T17:12:28.447Z,94.39
2023-03-31T17:14:55.966Z,94.55
2023-03-31T17:17:23.392Z,95.87
2023-03-31T17:19:51.429Z,95.99
2023-03-31T17:22:18.681Z,95.72
2023-03-31T17:24:45.970Z,95.30
2023-03-31T17:27:14.132Z,95.74
2023-03-31T17:29:41.365Z,95.96
2023-03-31T17:32:09.071Z,95.85
2023-03-31T17:34:36.439Z,96.07
2023-03-31T17:37:03.584Z,96.79
2023-03-31T17:39:30.753Z,97.08
2023-03-31T17:41:57.893Z,97.36
2023-03-31T17:44:25.244Z,97.15
2023-03-31T17:46:52.726Z,97.85
2023-03-31T17:49:22.844Z,97.86
2023-03-31T17:51:50.568Z,97.29
2023-03-31T17:54:17.668Z,97.25
2023-03-31T17:56:45.823Z,97.90
2023-03-31T17:59:13.001Z,98.03
2023-03-31T18:01:40.515Z,97.83
2023-03-31T18:04:08.035Z,98.30
2023-03-31T18:06:35.188Z,98.45
2023-03-31T18:09:02.794Z,98.10
2023-03-31T18:11:31.779Z,98.08
2023-03-31T18:14:02.459Z,98.55
2023-03-31T18:16:31.603Z,98.88
2023-03-31T18:18:59.758Z,99.02
2023-03-31T18:21:28.096Z,99.00
2023-03-31T18:23:56.836Z,98.64
2023-03-31T18:26:26.195Z,98.68
2023-03-31T18:28:54.434Z,99.33
2023-03-31T18:31:23.306Z,99.31
2023-03-31T18:33:53.183Z,99.37
2023-03-31T18:36:21.978Z,99.44
2023-03-31T18:38:50.448Z,99.28
2023-03-31T18:41:20.131Z,99.35
2023-03-31T18:43:51.419Z,99.28
2023-03-31T18:46:19.924Z,99.21
2023-03-31T18:48:47.553Z,99.56
2023-03-31T18:51:15.408Z,100.00
2023-03-31T18:53:42.919Z,99.84
2023-03-31T18:56:10.450Z,99.50
2023-03-31T18:58:38.236Z,99.29
2023-03-31T19:01:05.553Z,99.50
2023-03-31T19:03:32.742Z,100.00
2023-03-31T19:06:02.166Z,100.00
2023-03-31T19:08:29.774Z,99.99
2023-03-31T19:11:07.262Z,100.00
2023-03-31T19:13:34.384Z,99.90
2023-03-31T19:16:02.109Z,99.57
2023-03-31T19:18:30.742Z,99.71
2023-03-31T19:20:59.449Z,99.76
2023-03-31T19:23:26.960Z,99.91
2023-03-31T19:25:55.069Z,100.00
2023-03-31T19:28:27.305Z,100.00
2023-03-31T19:30:56.818Z,100.00
2023-03-31T19:33:25.409Z,99.69
2023-03-31T19:35:53.567Z,100.00
2023-03-31T19:38:22.325Z,100.00
2023-03-31T19:40:49.881Z,100.00
2023-03-31T19:43:21.205Z,100.00
2023-03-31T19:45:49.276Z,100.00
2023-03-31T19:48:17.094Z,100.00
2023-03-31T19:50:51.688Z,100.00
2023-03-31T19:53:19.365Z,100.00
2023-03-31T19:55:55.429Z,100.00
2023-03-31T19:58:23.029Z,100.00
2023-03-31T20:00:51.793Z,100.00
2023-03-31T20:03:19.273Z,100.00
2023-03-31T20:05:46.513Z,100.00
2023-03-31T20:08:13.622Z,100.00
2023-03-31T20:10:40.926Z,100.00
2023-03-31T20:13:08.144Z,100.00
2023-03-31T20:15:35.212Z,100.00
2023-03-31T20:18:02.480Z,100.00
2023-03-31T20:20:29.737Z,100.00
2023-03-31T20:22:56.879Z,100.00
2023-03-31T20:25:24.390Z,100.00
2023-03-31T20:27:52.461Z,100.00
2023-03-31T20:30:20.393Z,100.00
2023-03-31T20:32:48.193Z,100.00
2023-03-31T20:35:15.674Z,100.00
2023-03-31T20:37:44.061Z,100.00
2023-03-31T20:40:12.662Z,100.00
2023-03-31T20:42:40.632Z,100.00
2023-03-31T20:45:09.983Z,100.00
2023-03-31T20:47:37.923Z,100.00
2023-03-31T20:50:06.537Z,100.00
2023-03-31T20:52:34.405Z,100.00
2023-03-31T20:55:01.983Z,100.00
2023-03-31T20:57:30.399Z,100.00
2023-03-31T20:59:57.871Z,100.00
2023-03-31T21:02:24.987Z,100.00
2023-03-31T21:04:53.106Z,100.00
2023-03-31T21:07:20.158Z,100.00
2023-03-31T21:09:47.134Z,100.00
2023-03-31T21:12:14.910Z,100.00
2023-03-31T21:14:41.829Z,100.00
2023-03-31T21:17:08.866Z,100.00
2023-03-31T21:19:36.148Z,100.00
2023-03-31T21:22:03.172Z,100.00
2023-03-31T21:24:30.136Z,100.00
2023-03-31T21:26:57.070Z,100.00
2023-03-31T21:29:24.111Z,100.00
2023-03-31T21:31:51.131Z,100.00
2023-03-31T21:34:18.008Z,100.00
2023-03-31T21:36:44.885Z,100.00
2023-03-31T21:39:16.614Z,100.00
2023-03-31T21:41:43.598Z,100.00
2023-03-31T21:44:10.536Z,99.99
2023-03-31T21:46:37.508Z,99.93
2023-03-31T21:49:04.485Z,99.03
2023-03-31T21:51:31.633Z,98.38
2023-03-31T21:53:58.918Z,98.63
2023-03-31T21:56:28.042Z,99.35
2023-03-31T21:58:54.981Z,99.13
2023-03-31T22:01:22.854Z,99.45
2023-03-31T22:03:50.536Z,99.40
2023-03-31T22:06:17.651Z,99.65
2023-03-31T22:08:44.541Z,98.88
2023-03-31T22:11:12.133Z,98.64
2023-03-31T22:13:39.312Z,98.91
2023-03-31T22:16:13.815Z,99.18
2023-03-31T22:18:40.661Z,99.41
2023-03-31T22:21:17.431Z,99.71
2023-03-31T22:23:44.242Z,100.00
2023-03-31T22:26:11.857Z,100.00
2023-03-31T22:28:38.840Z,100.00
2023-03-31T22:31:05.928Z,99.83
2023-03-31T22:33:32.896Z,99.48
2023-03-31T22:35:59.831Z,99.24
2023-03-31T22:38:26.732Z,99.19
2023-03-31T22:40:54.228Z,99.32
2023-03-31T22:43:21.126Z,99.27
2023-03-31T22:45:48.551Z,99.34
2023-03-31T22:48:15.399Z,99.11
2023-03-31T22:50:43.643Z,98.54
2023-03-31T22:53:11.085Z,98.05
2023-03-31T22:55:42.659Z,98.30
2023-03-31T22:58:09.544Z,97.71
2023-03-31T23:00:36.405Z,97.50
2023-03-31T23:03:03.820Z,96.86
2023-03-31T23:05:30.930Z,96.81
2023-03-31T23:07:58.006Z,96.52
2023-03-31T23:10:24.832Z,96.43
2023-03-31T23:12:51.771Z,96.40
2023-03-31T23:15:18.740Z,97.06
2023-03-31T23:17:45.604Z,97.59
2023-03-31T23:20:13.078Z,97.42
2023-03-31T23:22:39.887Z,97.36
2023-03-31T23:25:09.395Z,96.88
2023-03-31T23:27:36.923Z,97.02
2023-03-31T23:30:04.175Z,97.32
2023-03-31T23:32:31.223Z,97.72
2023-03-31T23:34:58.021Z,97.27
2023-03-31T23:37:24.971Z,97.65
2023-03-31T23:39:52.466Z,97.66
2023-03-31T23:42:21.035Z,97.48
2023-03-31T23:44:47.860Z,97.71
2023-03-31T23:47:14.694Z,97.77
2023-03-31T23:49:41.428Z,97.89
2023-03-31T23:52:08.232Z,97.81
2023-03-31T23:54:35.008Z,98.15
2023-03-31T23:57:02.076Z,98.10
2023-03-31T23:59:28.931Z,97.92
